Time;durP1;ratioP1;P1;durP2;ratioP2;P2;SDS_P1;SDS_P2;PMS_P1;PMS_P2;Temp;Humidity;BMP_temperature;BMP_pressure;BME280_temperature;BME280_humidity;BME280_pressure;Samples;Min_cycle;Max_cycle;Signal;HPM_P1;HPM_P2
2022/06/24 00:00:49;;;;;;;3.47;0.73;;;;;;;;;;7382780;19;20110;-76
2022/06/24 00:03:19;;;;;;;4.55;0.70;;;;;;;;;;7389481;19;20489;-76
2022/06/24 00:05:46;;;;;;;6.65;1.00;;;;;;;;;;7387706;19;20461;-76
2022/06/24 00:08:12;;;;;;;5.50;0.65;;;;;;;;;;7388712;19;20030;-75
2022/06/24 00:10:37;;;;;;;2.50;0.70;;;;;;;;;;7388770;19;20007;-75
2022/06/24 00:13:07;;;;;;;4.25;0.50;;;;;;;;;;7385930;19;20286;-76
2022/06/24 00:15:35;;;;;;;2.13;0.70;;;;;;;;;;7387556;19;20469;-76
2022/06/24 00:18:18;;;;;;;2.30;0.50;;;;;;;;;;7387972;19;20006;-76
2022/06/24 00:20:50;;;;;;;2.55;0.63;;;;;;;;;;7384336;19;20021;-76
2022/06/24 00:23:20;;;;;;;2.35;0.70;;;;;;;;;;7387035;19;20028;-76
2022/06/24 00:25:46;;;;;;;1.20;0.65;;;;;;;;;;7389009;19;20010;-76
2022/06/24 00:28:13;;;;;;;2.03;0.68;;;;;;;;;;7388398;19;20445;-76
2022/06/24 00:30:51;;;;;;;6.82;1.02;;;;;;;;;;7387989;19;20106;-76
2022/06/24 00:33:22;;;;;;;1.90;0.55;;;;;;;;;;7389888;19;20006;-76
2022/06/24 00:35:52;;;;;;;3.00;0.50;;;;;;;;;;7389945;19;20006;-76
2022/06/24 00:38:28;;;;;;;7.97;0.80;;;;;;;;;;7388912;19;20013;-76
2022/06/24 00:40:56;;;;;;;2.53;0.43;;;;;;;;;;7387088;19;20351;-76
2022/06/24 00:43:31;;;;;;;2.33;0.47;;;;;;;;;;7388958;19;20029;-76
2022/06/24 00:46:22;;;;;;;;;;;;;;;;;;7388591;19;20074;-76
2022/06/24 00:48:55;;;;;;;5.18;1.08;;;;;;;;;;7385755;19;20337;-76
2022/06/24 00:51:23;;;;;;;0.95;0.38;;;;;;;;;;7387512;19;20006;-76
2022/06/24 00:53:53;;;;;;;2.72;0.77;;;;;;;;;;7390326;19;20019;-76
2022/06/24 00:56:21;;;;;;;0.50;0.30;;;;;;;;;;7395274;19;20036;-76
2022/06/24 00:58:52;;;;;;;1.70;0.32;;;;;;;;;;7394977;19;20125;-76
2022/06/24 01:01:25;;;;;;;3.63;0.57;;;;;;;;;;7392455;19;20101;-76
2022/06/24 01:03:54;;;;;;;2.05;0.57;;;;;;;;;;7396463;19;20042;-76
2022/06/24 01:06:19;;;;;;;0.70;0.35;;;;;;;;;;7396612;19;20010;-77
2022/06/24 01:08:45;;;;;;;2.08;0.40;;;;;;;;;;7393958;19;20021;-76
2022/06/24 01:11:11;;;;;;;2.42;0.90;;;;;;;;;;7396520;19;20015;-75
2022/06/24 01:13:36;;;;;;;0.75;0.60;;;;;;;;;;7391831;19;20019;-75
2022/06/24 01:16:01;;;;;;;0.52;0.50;;;;;;;;;;7395703;19;20018;-76
2022/06/24 01:18:27;;;;;;;1.48;0.50;;;;;;;;;;7393853;19;20037;-76
2022/06/24 01:20:52;;;;;;;1.40;0.57;;;;;;;;;;7394467;19;20013;-76
2022/06/24 01:23:24;;;;;;;1.63;0.45;;;;;;;;;;7392832;19;20011;-76
2022/06/24 01:25:50;;;;;;;2.00;0.70;;;;;;;;;;7395509;19;20514;-76
2022/06/24 01:28:15;;;;;;;5.32;0.60;;;;;;;;;;7393699;19;20015;-75
2022/06/24 01:30:41;;;;;;;1.58;0.40;;;;;;;;;;7391682;19;20502;-76
2022/06/24 01:33:06;;;;;;;2.45;0.45;;;;;;;;;;7394601;19;20017;-75
2022/06/24 01:35:32;;;;;;;2.15;0.30;;;;;;;;;;7394495;19;20007;-75
2022/06/24 01:37:57;;;;;;;4.78;0.98;;;;;;;;;;7392400;19;20006;-75
2022/06/24 01:40:22;;;;;;;3.13;0.40;;;;;;;;;;7393881;19;19998;-75
2022/06/24 01:42:48;;;;;;;2.17;0.80;;;;;;;;;;7392359;19;20382;-75
2022/06/24 01:45:13;;;;;;;3.08;0.60;;;;;;;;;;7393657;19;20440;-75
2022/06/24 01:47:38;;;;;;;1.42;0.50;;;;;;;;;;7393293;19;20038;-76
2022/06/24 01:50:05;;;;;;;1.92;0.45;;;;;;;;;;7393114;19;20466;-75
2022/06/24 01:52:30;;;;;;;7.03;0.95;;;;;;;;;;7394562;19;20406;-75
2022/06/24 01:54:55;;;;;;;1.60;0.38;;;;;;;;;;7393019;19;20434;-75
2022/06/24 01:57:21;;;;;;;2.22;0.40;;;;;;;;;;7393822;19;20006;-75
2022/06/24 01:59:46;;;;;;;0.95;0.38;;;;;;;;;;7390093;19;20477;-75
2022/06/24 02:02:12;;;;;;;2.05;0.30;;;;;;;;;;7393948;19;20010;-75
2022/06/24 02:04:37;;;;;;;2.28;0.40;;;;;;;;;;7387360;19;20014;-75
2022/06/24 02:07:03;;;;;;;2.90;0.63;;;;;;;;;;7395346;19;20010;-75
2022/06/24 02:09:28;;;;;;;1.27;0.50;;;;;;;;;;7392667;19;20002;-75
2022/06/24 02:14:38;;;;;;;3.33;0.73;;;;;;;;;;7391734;19;20017;-75
2022/06/24 02:17:03;;;;;;;2.72;0.60;;;;;;;;;;7393294;19;20362;-75
2022/06/24 02:19:29;;;;;;;4.30;0.70;;;;;;;;;;7388529;19;20707;-75
2022/06/24 02:21:54;;;;;;;8.27;0.60;;;;;;;;;;7395280;19;20006;-75
2022/06/24 02:24:19;;;;;;;4.55;0.80;;;;;;;;;;7387133;19;20448;-76
2022/06/24 02:26:45;;;;;;;5.15;0.60;;;;;;;;;;7393719;19;20533;-76
2022/06/24 02:29:11;;;;;;;2.03;0.63;;;;;;;;;;7391741;19;19999;-76
2022/06/24 02:31:38;;;;;;;4.55;0.57;;;;;;;;;;7391817;19;20003;-75
2022/06/24 02:34:04;;;;;;;3.75;0.63;;;;;;;;;;7392763;19;20006;-75
2022/06/24 02:36:29;;;;;;;1.38;0.35;;;;;;;;;;7390459;19;20027;-75
2022/06/24 02:38:54;;;;;;;1.65;0.47;;;;;;;;;;7390585;19;20009;-75
2022/06/24 02:41:20;;;;;;;1.58;0.50;;;;;;;;;;7391087;19;20010;-75
2022/06/24 02:43:45;;;;;;;1.02;0.40;;;;;;;;;;7391029;19;20010;-75
2022/06/24 02:46:13;;;;;;;1.63;0.47;;;;;;;;;;7389402;19;20014;-75
2022/06/24 02:48:41;;;;;;;5.07;0.50;;;;;;;;;;7390954;19;20416;-75
2022/06/24 02:51:11;;;;;;;2.78;0.50;;;;;;;;;;7390081;19;20104;-75
2022/06/24 02:53:37;;;;;;;1.25;0.40;;;;;;;;;;7389475;19;20011;-75
2022/06/24 02:56:08;;;;;;;2.75;0.50;;;;;;;;;;7388848;19;20068;-75
2022/06/24 02:58:34;;;;;;;1.20;0.50;;;;;;;;;;7390241;19;20010;-76
2022/06/24 03:01:01;;;;;;;1.10;0.47;;;;;;;;;;7388355;19;20038;-76
2022/06/24 03:03:27;;;;;;;0.98;0.40;;;;;;;;;;7390767;19;20358;-76
2022/06/24 03:05:52;;;;;;;1.77;0.55;;;;;;;;;;7391199;19;20486;-76
2022/06/24 03:08:19;;;;;;;1.00;0.35;;;;;;;;;;7391313;19;20017;-76
2022/06/24 03:10:45;;;;;;;2.17;0.52;;;;;;;;;;7390566;19;20113;-76
2022/06/24 03:13:11;;;;;;;1.27;0.52;;;;;;;;;;7392517;19;20415;-76
2022/06/24 03:15:37;;;;;;;4.35;1.50;;;;;;;;;;7387644;19;20458;-76
2022/06/24 03:18:02;;;;;;;3.25;1.20;;;;;;;;;;7390092;19;20010;-75
2022/06/24 03:20:28;;;;;;;2.17;0.90;;;;;;;;;;7388894;19;20342;-76
2022/06/24 03:22:53;;;;;;;1.30;0.45;;;;;;;;;;7392018;19;20006;-76
2022/06/24 03:25:19;;;;;;;2.38;0.73;;;;;;;;;;7387180;19;20007;-76
2022/06/24 03:27:44;;;;;;;1.25;0.40;;;;;;;;;;7391199;19;20040;-76
2022/06/24 03:30:11;;;;;;;1.70;0.43;;;;;;;;;;7388575;19;20042;-75
2022/06/24 03:32:37;;;;;;;4.03;0.73;;;;;;;;;;7391230;19;20018;-76
2022/06/24 03:35:02;;;;;;;1.17;0.40;;;;;;;;;;7390505;19;20498;-76
2022/06/24 03:37:29;;;;;;;2.80;0.45;;;;;;;;;;7383580;19;20054;-76
2022/06/24 03:39:54;;;;;;;2.65;0.40;;;;;;;;;;7381894;19;20326;-76
2022/06/24 03:42:20;;;;;;;2.65;0.70;;;;;;;;;;7388787;19;20123;-76
2022/06/24 03:44:45;;;;;;;1.15;0.43;;;;;;;;;;7386026;19;20018;-75
2022/06/24 03:47:11;;;;;;;0.70;0.32;;;;;;;;;;7390293;19;20006;-76
2022/06/24 03:49:36;;;;;;;1.15;0.38;;;;;;;;;;7383368;19;20349;-76
2022/06/24 03:52:02;;;;;;;1.45;0.60;;;;;;;;;;7388218;19;20015;-76
2022/06/24 03:54:27;;;;;;;1.17;0.47;;;;;;;;;;7388497;19;20023;-76
2022/06/24 03:56:53;;;;;;;2.42;0.75;;;;;;;;;;7390194;19;20362;-76
2022/06/24 03:59:18;;;;;;;1.02;0.50;;;;;;;;;;7388685;19;20015;-76
2022/06/24 04:01:43;;;;;;;1.33;0.55;;;;;;;;;;7387205;19;20010;-76
2022/06/24 04:04:09;;;;;;;2.03;0.57;;;;;;;;;;7388009;19;20006;-76
2022/06/24 04:06:34;;;;;;;2.30;0.95;;;;;;;;;;7388749;19;20003;-76
2022/06/24 04:09:00;;;;;;;1.65;0.40;;;;;;;;;;7382568;19;20026;-76
2022/06/24 04:11:25;;;;;;;1.98;0.55;;;;;;;;;;7385751;19;20540;-76
2022/06/24 04:13:51;;;;;;;1.23;0.68;;;;;;;;;;7380345;19;20393;-76
2022/06/24 04:16:16;;;;;;;1.88;0.50;;;;;;;;;;7378085;19;20006;-75
2022/06/24 04:19:30;;;;;;;3.10;0.50;;;;;;;;;;7380907;19;20002;-79
2022/06/24 04:21:57;;;;;;;0.65;0.30;;;;;;;;;;7383438;19;20409;-79
2022/06/24 04:24:23;;;;;;;1.20;0.60;;;;;;;;;;7379638;19;20107;-79
2022/06/24 04:27:21;;;;;;;4.82;0.70;;;;;;;;;;7382933;19;20007;-79
2022/06/24 04:29:46;;;;;;;4.40;0.77;;;;;;;;;;7392765;19;20013;-79
2022/06/24 04:32:11;;;;;;;4.47;0.90;;;;;;;;;;7393295;19;20010;-79
2022/06/24 04:34:38;;;;;;;1.30;0.50;;;;;;;;;;7389851;19;20010;-78
2022/06/24 04:37:04;;;;;;;5.45;1.20;;;;;;;;;;7394300;19;20516;-79
2022/06/24 04:39:29;;;;;;;2.05;0.60;;;;;;;;;;7411994;19;20010;-80
2022/06/24 04:42:19;;;;;;;1.65;0.43;;;;;;;;;;7413181;19;20055;-80
2022/06/24 04:44:49;;;;;;;4.25;1.33;;;;;;;;;;7404932;19;20287;-79
2022/06/24 04:47:15;;;;;;;2.85;0.95;;;;;;;;;;7411391;19;20021;-79
2022/06/24 04:49:40;;;;;;;3.17;0.80;;;;;;;;;;7417587;19;20010;-78
2022/06/24 04:52:07;;;;;;;1.33;0.43;;;;;;;;;;7402821;19;20785;-78
2022/06/24 04:54:33;;;;;;;2.05;0.57;;;;;;;;;;7397083;19;20011;-79
2022/06/24 04:56:58;;;;;;;2.10;0.57;;;;;;;;;;7402043;19;20022;-78
2022/06/24 04:59:24;;;;;;;2.95;1.10;;;;;;;;;;7402208;19;20011;-79
2022/06/24 05:01:50;;;;;;;4.68;0.80;;;;;;;;;;7403480;19;20011;-79
2022/06/24 05:04:15;;;;;;;1.25;0.47;;;;;;;;;;7399064;19;20014;-75
2022/06/24 05:06:40;;;;;;;2.88;0.60;;;;;;;;;;7393904;19;20048;-75
2022/06/24 05:09:06;;;;;;;3.35;0.70;;;;;;;;;;7394462;19;20454;-75
2022/06/24 05:11:31;;;;;;;2.70;1.00;;;;;;;;;;7394073;19;20006;-75
2022/06/24 05:13:57;;;;;;;2.25;0.70;;;;;;;;;;7390916;19;20027;-76
2022/06/24 05:16:22;;;;;;;3.97;0.60;;;;;;;;;;7393070;19;20381;-75
2022/06/24 05:18:47;;;;;;;2.75;0.60;;;;;;;;;;7395913;19;20130;-76
2022/06/24 05:21:13;;;;;;;3.08;0.60;;;;;;;;;;7398046;19;20030;-76
2022/06/24 05:23:38;;;;;;;3.05;1.17;;;;;;;;;;7396283;19;20013;-75
2022/06/24 05:26:03;;;;;;;3.50;0.63;;;;;;;;;;7394087;19;20025;-76
2022/06/24 05:28:29;;;;;;;5.55;0.50;;;;;;;;;;7393944;19;20478;-76
2022/06/24 05:30:57;;;;;;;8.93;0.80;;;;;;;;;;7394399;19;20025;-77
2022/06/24 05:33:23;;;;;;;3.35;0.60;;;;;;;;;;7392801;19;20014;-76
2022/06/24 05:35:55;;;;;;;3.85;0.60;;;;;;;;;;7387772;19;20010;-76
2022/06/24 05:38:22;;;;;;;5.03;0.98;;;;;;;;;;7393552;19;20011;-76
2022/06/24 05:40:51;;;;;;;4.30;0.60;;;;;;;;;;7388720;19;20011;-79
2022/06/24 05:43:20;;;;;;;2.47;0.80;;;;;;;;;;7388654;19;20017;-77
2022/06/24 05:45:46;;;;;;;3.40;0.95;;;;;;;;;;7385012;19;20048;-77
2022/06/24 05:48:13;;;;;;;1.70;0.52;;;;;;;;;;7392954;19;20369;-77
2022/06/24 05:50:39;;;;;;;3.00;0.63;;;;;;;;;;7396229;19;20007;-76
2022/06/24 05:55:49;;;;;;;3.58;0.80;;;;;;;;;;7393964;19;20484;-77
2022/06/24 05:58:15;;;;;;;1.52;0.50;;;;;;;;;;7396082;19;20011;-76
2022/06/24 06:00:40;;;;;;;1.75;0.47;;;;;;;;;;7394074;19;20002;-76
2022/06/24 06:03:05;;;;;;;2.20;0.50;;;;;;;;;;7394123;19;20006;-76
2022/06/24 06:05:31;;;;;;;2.65;0.85;;;;;;;;;;7395648;19;19998;-76
2022/06/24 06:07:56;;;;;;;6.10;0.88;;;;;;;;;;7396175;19;20458;-76
2022/06/24 06:10:21;;;;;;;3.45;0.93;;;;;;;;;;7391731;19;20361;-76
2022/06/24 06:12:47;;;;;;;1.17;0.40;;;;;;;;;;7392840;19;20018;-76
2022/06/24 06:15:12;;;;;;;7.15;0.98;;;;;;;;;;7391014;19;20026;-76
2022/06/24 06:17:37;;;;;;;2.15;0.70;;;;;;;;;;7392059;19;20016;-77
2022/06/24 06:20:03;;;;;;;4.82;0.82;;;;;;;;;;7390881;19;20007;-77
2022/06/24 06:22:29;;;;;;;2.20;0.43;;;;;;;;;;7388777;19;20366;-76
2022/06/24 06:24:55;;;;;;;5.22;0.80;;;;;;;;;;7387839;19;20009;-77
2022/06/24 06:27:21;;;;;;;2.40;0.40;;;;;;;;;;7385224;19;20006;-77
2022/06/24 06:29:46;;;;;;;0.63;0.20;;;;;;;;;;7385673;19;20042;-77
2022/06/24 06:32:12;;;;;;;3.60;1.00;;;;;;;;;;7386052;19;20013;-76
2022/06/24 06:34:37;;;;;;;2.20;0.70;;;;;;;;;;7389956;19;20016;-78
2022/06/24 06:37:03;;;;;;;3.13;1.17;;;;;;;;;;7390059;19;20005;-77
2022/06/24 06:39:28;;;;;;;3.67;1.00;;;;;;;;;;7389283;19;20490;-77
2022/06/24 06:41:53;;;;;;;1.52;0.70;;;;;;;;;;7388278;19;20481;-77
2022/06/24 06:44:19;;;;;;;2.00;0.70;;;;;;;;;;7389608;19;20006;-77
2022/06/24 06:46:45;;;;;;;1.73;0.77;;;;;;;;;;7388014;19;20010;-78
2022/06/24 06:49:10;;;;;;;4.63;0.98;;;;;;;;;;7391454;19;20014;-78
2022/06/24 06:51:35;;;;;;;4.07;1.00;;;;;;;;;;7392363;19;20006;-78
2022/06/24 06:54:01;;;;;;;2.92;0.80;;;;;;;;;;7389778;19;20127;-77
2022/06/24 06:56:26;;;;;;;3.78;0.75;;;;;;;;;;7390491;19;20018;-77
2022/06/24 06:58:51;;;;;;;4.43;0.90;;;;;;;;;;7389525;19;21054;-78
2022/06/24 07:01:17;;;;;;;1.40;0.73;;;;;;;;;;7391659;19;20021;-77
2022/06/24 07:03:42;;;;;;;4.22;0.75;;;;;;;;;;7390459;19;20070;-78
2022/06/24 07:06:07;;;;;;;2.17;0.50;;;;;;;;;;7391950;19;20035;-77
2022/06/24 07:08:33;;;;;;;2.55;0.80;;;;;;;;;;7391316;19;20514;-77
2022/06/24 07:10:58;;;;;;;2.40;0.68;;;;;;;;;;7385116;19;20006;-77
2022/06/24 07:13:23;;;;;;;4.40;0.60;;;;;;;;;;7386318;19;20392;-78
2022/06/24 07:15:49;;;;;;;2.78;0.73;;;;;;;;;;7383655;19;20081;-78
2022/06/24 07:18:15;;;;;;;1.90;0.63;;;;;;;;;;7382149;19;20370;-78
2022/06/24 07:20:42;;;;;;;1.55;0.50;;;;;;;;;;7382167;19;20010;-78
2022/06/24 07:23:08;;;;;;;3.47;0.70;;;;;;;;;;7387113;19;20099;-78
2022/06/24 07:25:33;;;;;;;1.85;0.55;;;;;;;;;;7383109;19;20002;-78
2022/06/24 07:27:59;;;;;;;3.33;0.68;;;;;;;;;;7391139;19;20017;-78
2022/06/24 07:30:24;;;;;;;1.65;0.65;;;;;;;;;;7388585;19;20377;-79
2022/06/24 07:32:50;;;;;;;1.48;0.50;;;;;;;;;;7388123;19;20078;-78
2022/06/24 07:35:15;;;;;;;3.28;0.63;;;;;;;;;;7387467;19;20024;-78
2022/06/24 07:37:41;;;;;;;2.95;0.57;;;;;;;;;;7380026;19;20427;-78
2022/06/24 07:40:07;;;;;;;2.22;0.73;;;;;;;;;;7378517;19;20007;-78
2022/06/24 07:42:34;;;;;;;2.08;0.88;;;;;;;;;;7386273;19;20018;-78
2022/06/24 07:44:59;;;;;;;9.40;0.75;;;;;;;;;;7383374;19;20021;-78
2022/06/24 07:47:24;;;;;;;2.67;0.82;;;;;;;;;;7382401;19;20102;-78
2022/06/24 07:49:50;;;;;;;2.00;0.55;;;;;;;;;;7384367;19;20074;-78
2022/06/24 07:52:15;;;;;;;3.67;0.65;;;;;;;;;;7386459;19;20019;-82
2022/06/24 07:54:40;;;;;;;3.40;0.70;;;;;;;;;;7382609;19;20010;-78
2022/06/24 07:57:06;;;;;;;2.20;0.70;;;;;;;;;;7378040;19;20339;-78
2022/06/24 07:59:34;;;;;;;0.80;0.65;;;;;;;;;;7381383;19;20485;-78
2022/06/24 08:02:02;;;;;;;2.65;0.52;;;;;;;;;;7380394;19;20017;-80
2022/06/24 08:04:28;;;;;;;3.95;0.80;;;;;;;;;;7376645;19;20370;-77
2022/06/24 08:06:53;;;;;;;4.93;0.70;;;;;;;;;;7387193;19;20010;-78
2022/06/24 08:09:21;;;;;;;3.65;0.60;;;;;;;;;;7388206;19;20017;-79
2022/06/24 08:11:47;;;;;;;4.22;0.80;;;;;;;;;;7381097;19;20043;-78
2022/06/24 08:14:14;;;;;;;2.13;0.82;;;;;;;;;;7386672;19;20014;-79
2022/06/24 08:16:39;;;;;;;2.55;1.05;;;;;;;;;;7385653;19;20370;-79
2022/06/24 08:19:05;;;;;;;2.35;0.80;;;;;;;;;;7389674;19;20044;-80
2022/06/24 08:21:30;;;;;;;3.47;0.90;;;;;;;;;;7384509;19;20017;-80
2022/06/24 08:23:56;;;;;;;1.48;0.60;;;;;;;;;;7386884;19;20358;-80
2022/06/24 08:26:22;;;;;;;3.75;0.80;;;;;;;;;;7384728;19;20498;-78
2022/06/24 08:28:47;;;;;;;2.47;0.60;;;;;;;;;;7386097;19;20014;-78
2022/06/24 08:31:12;;;;;;;3.47;0.60;;;;;;;;;;7384352;19;20002;-78
2022/06/24 08:33:38;;;;;;;7.20;1.00;;;;;;;;;;7388894;19;20037;-80
2022/06/24 08:36:05;;;;;;;3.30;0.60;;;;;;;;;;7388808;19;20023;-80
2022/06/24 08:38:30;;;;;;;4.47;0.90;;;;;;;;;;7389305;19;20014;-77
2022/06/24 08:40:59;;;;;;;4.90;0.80;;;;;;;;;;7388946;19;19995;-78
2022/06/24 08:43:30;;;;;;;2.17;0.68;;;;;;;;;;7392172;19;20007;-78
2022/06/24 08:45:57;;;;;;;1.08;0.60;;;;;;;;;;7390995;19;20003;-77
2022/06/24 08:48:25;;;;;;;4.45;0.80;;;;;;;;;;7391035;19;20014;-79
2022/06/24 08:50:51;;;;;;;4.35;1.05;;;;;;;;;;7388234;19;20011;-77
2022/06/24 08:53:17;;;;;;;2.20;0.60;;;;;;;;;;7388263;19;20014;-77
2022/06/24 08:55:44;;;;;;;4.95;1.67;;;;;;;;;;7390963;19;20015;-77
2022/06/24 08:58:12;;;;;;;4.53;0.95;;;;;;;;;;7389026;19;20011;-77
2022/06/24 09:00:38;;;;;;;2.15;0.75;;;;;;;;;;7387587;19;20021;-77
2022/06/24 09:03:05;;;;;;;4.00;0.95;;;;;;;;;;7387216;19;20400;-77
2022/06/24 09:05:31;;;;;;;4.40;1.10;;;;;;;;;;7388853;19;20502;-77
2022/06/24 09:08:17;;;;;;;1.95;1.05;;;;;;;;;;7388515;19;20019;-77
2022/06/24 09:11:06;;;;;;;4.32;1.17;;;;;;;;;;7389704;19;20469;-79
2022/06/24 09:13:41;;;;;;;3.78;0.90;;;;;;;;;;7388114;19;20011;-78
2022/06/24 09:16:07;;;;;;;3.33;1.40;;;;;;;;;;7394783;19;20022;-78
2022/06/24 09:18:33;;;;;;;4.82;1.38;;;;;;;;;;7392789;19;20630;-77
2022/06/24 09:20:58;;;;;;;4.00;1.10;;;;;;;;;;7393221;19;20488;-77
2022/06/24 09:23:24;;;;;;;5.53;1.63;;;;;;;;;;7395272;19;20045;-77
2022/06/24 09:25:51;;;;;;;4.75;1.23;;;;;;;;;;7391057;19;20003;-77
2022/06/24 09:28:21;;;;;;;4.00;1.30;;;;;;;;;;7394301;19;20124;-78
2022/06/24 09:30:46;;;;;;;5.35;0.90;;;;;;;;;;7394704;19;20038;-78
2022/06/24 09:33:17;;;;;;;7.78;1.10;;;;;;;;;;7396219;19;20489;-78
2022/06/24 09:35:43;;;;;;;2.53;1.05;;;;;;;;;;7394228;19;20030;-78
2022/06/24 09:38:09;;;;;;;2.85;0.80;;;;;;;;;;7392902;19;20074;-78
2022/06/24 09:40:34;;;;;;;3.78;1.05;;;;;;;;;;7394128;19;20003;-78
2022/06/24 09:43:01;;;;;;;2.70;1.05;;;;;;;;;;7392851;19;20010;-77
2022/06/24 09:45:44;;;;;;;4.15;1.15;;;;;;;;;;7393072;19;20478;-77
2022/06/24 09:48:30;;;;;;;2.13;0.88;;;;;;;;;;7393329;19;20049;-78
2022/06/24 09:51:04;;;;;;;3.60;1.10;;;;;;;;;;7396714;19;20006;-78
2022/06/24 09:53:41;;;;;;;4.15;0.93;;;;;;;;;;7395674;19;20006;-78
2022/06/24 09:56:08;;;;;;;5.22;1.50;;;;;;;;;;7392727;19;20027;-75
2022/06/24 09:58:39;;;;;;;3.08;1.20;;;;;;;;;;7393139;19;20010;-77
2022/06/24 10:01:05;;;;;;;3.90;1.20;;;;;;;;;;7393373;19;20011;-77
2022/06/24 10:03:32;;;;;;;4.38;1.10;;;;;;;;;;7393865;19;20047;-77
2022/06/24 10:06:08;;;;;;;3.45;1.00;;;;;;;;;;7396454;19;20037;-77
2022/06/24 10:08:35;;;;;;;3.53;0.95;;;;;;;;;;7386830;19;20496;-77
2022/06/24 10:11:07;;;;;;;3.03;1.00;;;;;;;;;;7393213;19;20011;-77
2022/06/24 10:13:33;;;;;;;2.72;0.88;;;;;;;;;;7393946;19;20011;-77
2022/06/24 10:16:06;;;;;;;5.47;1.13;;;;;;;;;;7393408;19;20010;-76
2022/06/24 10:18:42;;;;;;;5.30;1.10;;;;;;;;;;7391138;19;20014;-77
2022/06/24 10:21:09;;;;;;;2.40;0.73;;;;;;;;;;7391431;19;20011;-75
2022/06/24 10:23:48;;;;;;;2.58;0.70;;;;;;;;;;7390826;19;20015;-75
2022/06/24 10:26:22;;;;;;;4.53;0.98;;;;;;;;;;7392389;19;20143;-74
2022/06/24 10:29:06;;;;;;;3.75;1.00;;;;;;;;;;7391339;19;20016;-75
2022/06/24 10:31:53;;;;;;;2.60;0.90;;;;;;;;;;7391939;19;20010;-77
2022/06/24 10:34:20;;;;;;;4.82;1.33;;;;;;;;;;7392154;19;20095;-77
2022/06/24 10:36:46;;;;;;;1.65;0.90;;;;;;;;;;7390459;19;20006;-76
2022/06/24 10:39:15;;;;;;;3.17;0.90;;;;;;;;;;7389134;19;20023;-76
2022/06/24 10:41:41;;;;;;;5.63;1.02;;;;;;;;;;7389894;19;20023;-76
2022/06/24 10:44:27;;;;;;;6.43;1.15;;;;;;;;;;7389517;19;20018;-76
2022/06/24 10:47:04;;;;;;;1.63;0.80;;;;;;;;;;7388427;19;20482;-78
2022/06/24 10:49:48;;;;;;;3.80;1.00;;;;;;;;;;7390796;19;20505;-78
2022/06/24 10:52:39;;;;;;;1.05;0.70;;;;;;;;;;7393885;19;20362;-77
2022/06/24 10:57:54;;;;;;;3.78;1.20;;;;;;;;;;7388158;19;19987;-76
2022/06/24 11:00:24;;;;;;;4.95;0.90;;;;;;;;;;7385292;19;20037;-75
2022/06/24 11:03:05;;;;;;;2.50;0.82;;;;;;;;;;7390823;19;20376;-75
2022/06/24 11:05:37;;;;;;;4.05;1.02;;;;;;;;;;7389698;19;20006;-76
2022/06/24 11:08:09;;;;;;;6.60;1.27;;;;;;;;;;7388230;19;20013;-75
2022/06/24 11:10:35;;;;;;;3.50;0.90;;;;;;;;;;7390812;19;20022;-75
2022/06/24 11:13:02;;;;;;;4.10;1.30;;;;;;;;;;7388081;19;20343;-76
2022/06/24 11:15:36;;;;;;;1.77;0.80;;;;;;;;;;7384166;19;20007;-76
2022/06/24 11:18:08;;;;;;;3.72;0.93;;;;;;;;;;7387817;19;20477;-75
2022/06/24 11:20:59;;;;;;;2.97;1.13;;;;;;;;;;7386405;19;20027;-76
2022/06/24 11:23:27;;;;;;;3.90;0.85;;;;;;;;;;7387736;19;20013;-75
2022/06/24 11:25:59;;;;;;;6.25;1.15;;;;;;;;;;7389040;19;20437;-76
2022/06/24 11:28:30;;;;;;;7.13;1.15;;;;;;;;;;7388889;19;20024;-76
2022/06/24 11:31:13;;;;;;;3.42;0.93;;;;;;;;;;7385244;19;20010;-76
2022/06/24 11:33:38;;;;;;;5.90;1.02;;;;;;;;;;7386842;19;20034;-76
2022/06/24 11:36:04;;;;;;;3.58;1.17;;;;;;;;;;7386835;19;20007;-76
2022/06/24 11:38:32;;;;;;;4.78;1.00;;;;;;;;;;7382446;19;20346;-77
2022/06/24 11:40:57;;;;;;;3.85;0.93;;;;;;;;;;7385419;19;20021;-77
2022/06/24 11:43:23;;;;;;;9.55;1.33;;;;;;;;;;7388215;19;20006;-76
2022/06/24 11:45:49;;;;;;;6.28;1.00;;;;;;;;;;7390037;19;20010;-76
2022/06/24 11:48:24;;;;;;;4.00;1.20;;;;;;;;;;7391549;19;20006;-76
2022/06/24 11:50:51;;;;;;;3.63;1.00;;;;;;;;;;7390754;19;20010;-76
2022/06/24 11:53:21;;;;;;;3.17;0.90;;;;;;;;;;7388546;19;20470;-76
2022/06/24 11:55:51;;;;;;;1.85;0.70;;;;;;;;;;7390225;19;20030;-76
2022/06/24 11:58:19;;;;;;;4.93;0.88;;;;;;;;;;7391465;19;20022;-76
2022/06/24 12:00:45;;;;;;;1.48;0.80;;;;;;;;;;7387950;19;20017;-76
2022/06/24 12:03:11;;;;;;;2.45;1.00;;;;;;;;;;7388954;19;20044;-76
2022/06/24 12:05:39;;;;;;;3.33;0.80;;;;;;;;;;7390671;19;20006;-76
2022/06/24 12:08:05;;;;;;;1.95;0.70;;;;;;;;;;7390465;19;20017;-77
2022/06/24 12:10:31;;;;;;;2.80;0.80;;;;;;;;;;7389373;19;20002;-77
2022/06/24 12:13:05;;;;;;;1.23;0.50;;;;;;;;;;7388364;19;20014;-77
2022/06/24 12:15:36;;;;;;;2.45;0.75;;;;;;;;;;7388606;19;20478;-77
2022/06/24 12:18:11;;;;;;;3.72;0.82;;;;;;;;;;7390713;19;20379;-76
2022/06/24 12:20:36;;;;;;;;;;;;;;;;;;7389894;19;20003;-77
2022/06/24 12:23:18;;;;;;;1.90;0.80;;;;;;;;;;7390498;19;19918;-76
2022/06/24 12:25:45;;;;;;;3.78;0.90;;;;;;;;;;7389745;19;20908;-76
2022/06/24 12:28:25;;;;;;;3.05;0.60;;;;;;;;;;7388376;19;20022;-76
2022/06/24 12:31:06;;;;;;;2.00;0.60;;;;;;;;;;7389518;19;20456;-76
2022/06/24 12:33:35;;;;;;;2.95;0.93;;;;;;;;;;7390300;19;20007;-76
2022/06/24 12:36:09;;;;;;;2.70;0.80;;;;;;;;;;7389190;19;20009;-76
2022/06/24 12:38:36;;;;;;;1.52;0.60;;;;;;;;;;7388707;19;20354;-76
2022/06/24 12:41:15;;;;;;;3.28;0.75;;;;;;;;;;7388383;19;20006;-76
2022/06/24 12:44:10;;;;;;;2.17;0.60;;;;;;;;;;7387987;19;20386;-76
2022/06/24 12:46:36;;;;;;;0.98;0.55;;;;;;;;;;7387426;19;20006;-76
2022/06/24 12:51:58;;;;;;;4.20;0.93;;;;;;;;;;7399290;19;20036;-76
2022/06/24 12:54:24;;;;;;;1.88;0.82;;;;;;;;;;7394568;19;20014;-76
2022/06/24 12:56:49;;;;;;;1.52;0.80;;;;;;;;;;7396827;19;20003;-76
2022/06/24 12:59:15;;;;;;;2.10;0.65;;;;;;;;;;7398282;19;20085;-76
2022/06/24 13:01:43;;;;;;;2.85;0.73;;;;;;;;;;7394163;19;20454;-76
2022/06/24 13:04:10;;;;;;;3.03;0.90;;;;;;;;;;7395021;19;20014;-76
2022/06/24 13:06:36;;;;;;;7.43;0.90;;;;;;;;;;7397136;19;20102;-76
2022/06/24 13:09:02;;;;;;;2.08;1.08;;;;;;;;;;7391315;19;20019;-76
2022/06/24 13:11:27;;;;;;;0.98;0.70;;;;;;;;;;7393255;19;20003;-76
2022/06/24 13:13:52;;;;;;;3.20;0.80;;;;;;;;;;7394144;19;20074;-76
2022/06/24 13:16:18;;;;;;;2.45;0.82;;;;;;;;;;7396235;19;19999;-77
2022/06/24 13:18:43;;;;;;;1.52;1.00;;;;;;;;;;7396731;19;19999;-77
2022/06/24 13:21:08;;;;;;;2.00;0.80;;;;;;;;;;7391188;19;20010;-76
2022/06/24 13:23:34;;;;;;;3.35;1.23;;;;;;;;;;7395359;19;20069;-76
2022/06/24 13:25:59;;;;;;;1.75;0.70;;;;;;;;;;7395905;19;20366;-76
2022/06/24 13:28:25;;;;;;;2.28;0.82;;;;;;;;;;7396359;19;20002;-76
2022/06/24 13:30:50;;;;;;;3.65;0.80;;;;;;;;;;7395136;19;20314;-75
2022/06/24 13:33:15;;;;;;;5.15;0.88;;;;;;;;;;7395229;19;20014;-76
2022/06/24 13:35:41;;;;;;;2.63;1.10;;;;;;;;;;7395231;19;20015;-76
2022/06/24 13:38:06;;;;;;;5.18;1.23;;;;;;;;;;7394296;19;20010;-75
2022/06/24 13:40:32;;;;;;;2.38;0.80;;;;;;;;;;7395176;19;20006;-75
2022/06/24 13:42:57;;;;;;;3.53;0.80;;;;;;;;;;7392450;19;20014;-75
2022/06/24 13:45:24;;;;;;;1.95;0.68;;;;;;;;;;7395143;19;20005;-75
2022/06/24 13:47:49;;;;;;;4.97;1.00;;;;;;;;;;7395427;19;20416;-75
2022/06/24 13:50:14;;;;;;;5.10;0.88;;;;;;;;;;7395674;19;19998;-75
2022/06/24 13:52:39;;;;;;;1.95;0.80;;;;;;;;;;7394369;19;20120;-74
2022/06/24 13:55:06;;;;;;;1.50;0.60;;;;;;;;;;7394382;19;20026;-77
2022/06/24 13:57:32;;;;;;;3.92;0.80;;;;;;;;;;7394690;19;20013;-75
2022/06/24 13:59:59;;;;;;;3.22;1.10;;;;;;;;;;7393058;19;20013;-75
2022/06/24 14:02:25;;;;;;;1.83;0.80;;;;;;;;;;7392585;19;20010;-75
2022/06/24 14:04:50;;;;;;;2.97;1.27;;;;;;;;;;7392632;19;20029;-75
2022/06/24 14:07:15;;;;;;;6.63;1.20;;;;;;;;;;7394789;19;20009;-75
2022/06/24 14:09:41;;;;;;;2.75;0.80;;;;;;;;;;7394898;19;20448;-74
2022/06/24 14:12:08;;;;;;;6.07;0.85;;;;;;;;;;7394838;19;20119;-74
2022/06/24 14:14:33;;;;;;;5.15;0.90;;;;;;;;;;7391661;19;20010;-77
2022/06/24 14:16:58;;;;;;;5.68;0.95;;;;;;;;;;7394030;19;20093;-75
2022/06/24 14:19:24;;;;;;;3.05;0.98;;;;;;;;;;7393013;19;19998;-74
2022/06/24 14:21:49;;;;;;;3.20;1.10;;;;;;;;;;7392176;19;20014;-74
2022/06/24 14:24:32;;;;;;;4.57;0.95;;;;;;;;;;7391291;19;20002;-74
2022/06/24 14:27:03;;;;;;;4.45;1.15;;;;;;;;;;7394918;19;20013;-74
2022/06/24 14:29:29;;;;;;;1.23;0.75;;;;;;;;;;7394242;19;20013;-74
2022/06/24 14:31:54;;;;;;;4.00;0.90;;;;;;;;;;7393609;19;20024;-75
2022/06/24 14:34:20;;;;;;;7.35;1.83;;;;;;;;;;7389967;19;20010;-76
2022/06/24 14:36:45;;;;;;;3.95;0.90;;;;;;;;;;7394121;19;20018;-74
2022/06/24 14:41:55;;;;;;;2.63;0.95;;;;;;;;;;7390902;19;20042;-74
2022/06/24 14:44:20;;;;;;;2.47;0.90;;;;;;;;;;7391486;19;20458;-76
2022/06/24 14:46:46;;;;;;;6.55;1.30;;;;;;;;;;7391675;19;20138;-74
2022/06/24 14:49:11;;;;;;;3.00;0.95;;;;;;;;;;7393677;19;20010;-74
2022/06/24 14:51:36;;;;;;;3.47;0.88;;;;;;;;;;7391236;19;19998;-74
2022/06/24 14:54:02;;;;;;;4.72;1.20;;;;;;;;;;7392241;19;20025;-74
2022/06/24 14:56:27;;;;;;;9.52;1.10;;;;;;;;;;7392572;19;20664;-74
2022/06/24 14:58:53;;;;;;;5.93;1.67;;;;;;;;;;7392454;19;20335;-74
2022/06/24 15:01:18;;;;;;;4.15;0.77;;;;;;;;;;7390557;19;20377;-74